Time;durP1;ratioP1;P1;durP2;ratioP2;P2;SDS_P1;SDS_P2;PMS_P1;PMS_P2;Temp;Humidity;BMP_temperature;BMP_pressure;BME280_temperature;BME280_humidity;BME280_pressure;Samples;Min_cycle;Max_cycle;Signal;HPM_P1;HPM_P2
2023/03/16 00:00:26;;;;;;;6.38;3.22;;;;;;;;;;5116177;28;20093;-73
2023/03/16 00:02:52;;;;;;;9.05;3.42;;;;;;;;;;5116130;28;20039;-73
2023/03/16 00:05:18;;;;;;;6.97;3.60;;;;;;;;;;5116107;28;20036;-73
2023/03/16 00:07:44;;;;;;;7.45;3.20;;;;;;;;;;5099056;28;20046;-73
2023/03/16 00:10:12;;;;;;;5.15;2.90;;;;;;;;;;5115872;28;20054;-73
2023/03/16 00:12:38;;;;;;;7.50;3.55;;;;;;;;;;5115808;28;20487;-73
2023/03/16 00:15:04;;;;;;;8.23;3.75;;;;;;;;;;5098690;28;20126;-73
2023/03/16 00:17:30;;;;;;;6.47;3.30;;;;;;;;;;5115614;28;20035;-73
2023/03/16 00:19:57;;;;;;;7.43;3.70;;;;;;;;;;5115635;28;20039;-74
2023/03/16 00:22:24;;;;;;;6.35;2.90;;;;;;;;;;5115565;28;20478;-73
2023/03/16 00:24:51;;;;;;;6.25;3.28;;;;;;;;;;5115571;28;20096;-74
2023/03/16 00:27:17;;;;;;;11.38;3.83;;;;;;;;;;5115829;28;20390;-73
2023/03/16 00:29:45;;;;;;;5.20;3.20;;;;;;;;;;5115926;28;20035;-73
2023/03/16 00:32:12;;;;;;;6.88;3.00;;;;;;;;;;5115908;28;20047;-73
2023/03/16 00:34:38;;;;;;;6.68;3.20;;;;;;;;;;5115468;28;20054;-73
2023/03/16 00:37:04;;;;;;;7.68;3.53;;;;;;;;;;5115633;28;20043;-74
2023/03/16 00:39:34;;;;;;;8.45;3.53;;;;;;;;;;5115808;28;20031;-73
2023/03/16 00:42:00;;;;;;;8.77;3.17;;;;;;;;;;5115722;28;20042;-74
2023/03/16 00:44:27;;;;;;;6.97;3.45;;;;;;;;;;5101829;27;20043;-73
2023/03/16 00:46:53;;;;;;;6.32;3.58;;;;;;;;;;5119361;27;20172;-73
2023/03/16 00:49:21;;;;;;;8.90;3.38;;;;;;;;;;5119392;27;20486;-74
2023/03/16 00:51:47;;;;;;;5.78;3.45;;;;;;;;;;5119372;27;20050;-73
2023/03/16 00:54:13;;;;;;;6.32;3.78;;;;;;;;;;5119132;27;20039;-73
2023/03/16 00:56:39;;;;;;;8.07;3.38;;;;;;;;;;5102040;27;20055;-73
2023/03/16 00:59:05;;;;;;;10.48;3.83;;;;;;;;;;5102567;27;20427;-73
2023/03/16 01:01:31;;;;;;;7.13;3.70;;;;;;;;;;5102135;27;20123;-73
2023/03/16 01:03:58;;;;;;;12.00;4.40;;;;;;;;;;5119263;27;20363;-73
2023/03/16 01:06:25;;;;;;;8.20;3.75;;;;;;;;;;5119188;27;20129;-73
2023/03/16 01:08:51;;;;;;;8.30;3.55;;;;;;;;;;5118835;27;20100;-74
2023/03/16 01:11:19;;;;;;;6.15;3.80;;;;;;;;;;5118003;27;20520;-74
2023/03/16 01:13:48;;;;;;;7.75;3.47;;;;;;;;;;5118757;27;20043;-73
2023/03/16 01:16:23;;;;;;;9.27;4.28;;;;;;;;;;5118322;27;20395;-74
2023/03/16 01:18:51;;;;;;;8.60;3.85;;;;;;;;;;5118091;27;20454;-74
2023/03/16 01:21:17;;;;;;;5.05;3.40;;;;;;;;;;5149533;27;20073;-74
2023/03/16 01:23:43;;;;;;;5.28;3.35;;;;;;;;;;5101628;27;20043;-75
2023/03/16 01:26:10;;;;;;;7.47;3.65;;;;;;;;;;5136382;27;20498;-74
2023/03/16 01:28:36;;;;;;;6.53;3.95;;;;;;;;;;5117541;27;20038;-74
2023/03/16 01:31:04;;;;;;;6.47;3.80;;;;;;;;;;5117206;27;20039;-74
2023/03/16 01:33:30;;;;;;;7.80;3.95;;;;;;;;;;5117602;27;20027;-74
2023/03/16 01:35:57;;;;;;;6.78;4.15;;;;;;;;;;5117157;27;20035;-74
2023/03/16 01:38:24;;;;;;;9.40;4.22;;;;;;;;;;5100222;27;20467;-74
2023/03/16 01:40:51;;;;;;;6.53;3.50;;;;;;;;;;5116456;27;20087;-68
2023/03/16 01:43:18;;;;;;;6.90;3.60;;;;;;;;;;5116883;27;20122;-74
2023/03/16 01:45:53;;;;;;;7.70;4.07;;;;;;;;;;5117209;27;20232;-74
2023/03/16 01:48:20;;;;;;;7.43;3.80;;;;;;;;;;5131775;27;20039;-74
2023/03/16 01:50:47;;;;;;;5.88;3.63;;;;;;;;;;5117162;27;20039;-74
2023/03/16 01:53:13;;;;;;;6.63;3.67;;;;;;;;;;5117217;27;20039;-74
2023/03/16 01:55:40;;;;;;;6.40;3.97;;;;;;;;;;5116576;27;20055;-74
2023/03/16 01:58:06;;;;;;;7.57;3.85;;;;;;;;;;5116760;27;20039;-74
2023/03/16 02:00:33;;;;;;;7.43;3.47;;;;;;;;;;5116656;27;20067;-74
2023/03/16 02:03:04;;;;;;;9.30;3.95;;;;;;;;;;5116814;27;20035;-74
2023/03/16 02:05:37;;;;;;;8.13;4.10;;;;;;;;;;5116626;27;20043;-74
2023/03/16 02:08:03;;;;;;;9.82;4.07;;;;;;;;;;5097977;27;20042;-74
2023/03/16 02:10:30;;;;;;;6.82;3.88;;;;;;;;;;5116472;27;20090;-74
2023/03/16 02:12:57;;;;;;;5.55;3.88;;;;;;;;;;5099573;27;20042;-74
2023/03/16 02:15:23;;;;;;;8.50;3.75;;;;;;;;;;5112919;28;20044;-74
2023/03/16 02:17:50;;;;;;;8.70;3.70;;;;;;;;;;5084143;27;20084;-74
2023/03/16 02:20:21;;;;;;;6.15;3.80;;;;;;;;;;5099500;27;20043;-74
2023/03/16 02:22:48;;;;;;;5.65;3.88;;;;;;;;;;5113951;27;20043;-74
2023/03/16 02:25:16;;;;;;;6.90;3.97;;;;;;;;;;5132683;27;20115;-74
2023/03/16 02:28:05;;;;;;;6.57;4.20;;;;;;;;;;5116330;27;20031;-74
2023/03/16 02:30:31;;;;;;;6.45;3.90;;;;;;;;;;5116113;27;20039;-74
2023/03/16 02:32:57;;;;;;;8.18;3.67;;;;;;;;;;5116032;27;20043;-74
2023/03/16 02:35:23;;;;;;;6.25;3.80;;;;;;;;;;5115942;27;20449;-74
2023/03/16 02:37:51;;;;;;;9.95;4.05;;;;;;;;;;5116425;27;20035;-74
2023/03/16 02:40:22;;;;;;;9.23;3.70;;;;;;;;;;5117064;27;20047;-74
2023/03/16 02:42:53;;;;;;;7.63;3.97;;;;;;;;;;5114912;27;20070;-74
2023/03/16 02:45:20;;;;;;;10.93;3.92;;;;;;;;;;5116374;27;20054;-74
2023/03/16 02:47:47;;;;;;;6.15;3.72;;;;;;;;;;5115882;27;20043;-75
2023/03/16 02:50:14;;;;;;;5.82;3.75;;;;;;;;;;5115991;27;20046;-75
2023/03/16 02:52:40;;;;;;;7.28;4.18;;;;;;;;;;5115944;27;20102;-74
2023/03/16 02:55:07;;;;;;;5.60;4.00;;;;;;;;;;5115696;27;20035;-74
2023/03/16 02:57:33;;;;;;;10.20;4.20;;;;;;;;;;5115307;27;20116;-74
2023/03/16 03:00:00;;;;;;;6.18;3.92;;;;;;;;;;5115773;27;20127;-75
2023/03/16 03:02:26;;;;;;;4.35;3.72;;;;;;;;;;5119207;27;20035;-74
2023/03/16 03:04:53;;;;;;;6.63;4.05;;;;;;;;;;5115567;27;20051;-75
2023/03/16 03:07:20;;;;;;;6.55;4.30;;;;;;;;;;5114840;27;20166;-74
2023/03/16 03:09:46;;;;;;;8.52;4.05;;;;;;;;;;5115347;27;20050;-74
2023/03/16 03:12:13;;;;;;;7.00;4.40;;;;;;;;;;5115293;27;20117;-74
2023/03/16 03:14:39;;;;;;;5.25;3.63;;;;;;;;;;5115240;27;20039;-74
2023/03/16 03:17:06;;;;;;;9.13;4.20;;;;;;;;;;5115585;27;20087;-74
2023/03/16 03:19:36;;;;;;;7.28;3.70;;;;;;;;;;5098717;27;20070;-74
2023/03/16 03:22:05;;;;;;;7.30;3.67;;;;;;;;;;5119594;27;20118;-74
2023/03/16 03:24:31;;;;;;;5.97;4.30;;;;;;;;;;5115509;27;20390;-74
2023/03/16 03:27:04;;;;;;;9.02;4.20;;;;;;;;;;5112652;27;20042;-74
2023/03/16 03:29:33;;;;;;;6.90;4.43;;;;;;;;;;5115502;27;20049;-74
2023/03/16 03:32:05;;;;;;;5.28;4.00;;;;;;;;;;5081658;27;20038;-75
2023/03/16 03:34:32;;;;;;;6.68;4.20;;;;;;;;;;5117168;27;20039;-70
2023/03/16 03:36:58;;;;;;;5.55;4.28;;;;;;;;;;5098031;27;20035;-69
2023/03/16 03:39:24;;;;;;;9.38;4.32;;;;;;;;;;5115040;27;20094;-69
2023/03/16 03:41:53;;;;;;;6.55;4.30;;;;;;;;;;5115052;27;20031;-70
2023/03/16 03:44:23;;;;;;;6.53;4.10;;;;;;;;;;5129549;27;20043;-70
2023/03/16 03:46:50;;;;;;;8.15;4.30;;;;;;;;;;5115250;28;20070;-70
2023/03/16 03:49:16;;;;;;;6.75;4.60;;;;;;;;;;5095215;27;20070;-70
2023/03/16 03:51:43;;;;;;;6.75;4.18;;;;;;;;;;5114940;27;20126;-70
2023/03/16 03:54:09;;;;;;;6.82;3.88;;;;;;;;;;5114584;28;20050;-70
2023/03/16 03:56:35;;;;;;;8.80;4.38;;;;;;;;;;5114765;28;20131;-70
2023/03/16 03:59:02;;;;;;;8.50;4.85;;;;;;;;;;5097664;28;20043;-70
2023/03/16 04:01:28;;;;;;;5.65;4.05;;;;;;;;;;5114793;28;20046;-70
2023/03/16 04:03:54;;;;;;;9.05;4.93;;;;;;;;;;5115085;27;20039;-70
2023/03/16 04:06:20;;;;;;;9.85;4.60;;;;;;;;;;5114655;28;20042;-70
2023/03/16 04:08:46;;;;;;;7.63;4.90;;;;;;;;;;5114627;28;20035;-70
2023/03/16 04:11:12;;;;;;;8.50;4.57;;;;;;;;;;5114671;28;20042;-75
2023/03/16 04:13:38;;;;;;;8.00;4.88;;;;;;;;;;5115056;28;20176;-74
2023/03/16 04:16:04;;;;;;;7.60;4.72;;;;;;;;;;5114912;28;20092;-74
2023/03/16 04:18:37;;;;;;;8.07;4.70;;;;;;;;;;5118588;27;20042;-75
2023/03/16 04:21:03;;;;;;;;;;;;;;;;;;5119538;27;20052;-75
2023/03/16 04:23:29;;;;;;;7.55;4.65;;;;;;;;;;5118805;27;19960;-75
2023/03/16 04:25:55;;;;;;;9.50;4.80;;;;;;;;;;5118954;27;20043;-75
2023/03/16 04:28:21;;;;;;;6.05;4.60;;;;;;;;;;5118820;27;20099;-75
2023/03/16 04:30:47;;;;;;;9.55;4.80;;;;;;;;;;5102173;27;20051;-75
2023/03/16 04:33:13;;;;;;;9.57;5.55;;;;;;;;;;5118612;27;20069;-75
2023/03/16 04:35:40;;;;;;;6.90;4.80;;;;;;;;;;5118529;27;20039;-75
2023/03/16 04:38:06;;;;;;;7.35;4.65;;;;;;;;;;5118585;27;20047;-75
2023/03/16 04:40:32;;;;;;;9.32;4.82;;;;;;;;;;5118739;27;20117;-75
2023/03/16 04:42:58;;;;;;;8.68;5.15;;;;;;;;;;5101236;27;20031;-75
2023/03/16 04:45:25;;;;;;;6.82;4.63;;;;;;;;;;5118400;27;20096;-74
2023/03/16 04:47:51;;;;;;;7.55;4.60;;;;;;;;;;5118681;27;20096;-75
2023/03/16 04:50:17;;;;;;;9.23;4.88;;;;;;;;;;5118387;27;20087;-75
2023/03/16 04:52:43;;;;;;;6.68;4.40;;;;;;;;;;5118373;27;20395;-75
2023/03/16 04:55:09;;;;;;;7.53;4.88;;;;;;;;;;5115243;27;20309;-75
2023/03/16 04:57:35;;;;;;;8.38;4.68;;;;;;;;;;5117907;27;20051;-75
2023/03/16 05:00:08;;;;;;;9.20;4.70;;;;;;;;;;5129701;27;20502;-75
2023/03/16 05:02:34;;;;;;;8.18;4.65;;;;;;;;;;5117663;27;20503;-75
2023/03/16 05:05:01;;;;;;;6.63;5.00;;;;;;;;;;5117801;27;20070;-75
2023/03/16 05:07:27;;;;;;;6.78;4.70;;;;;;;;;;5100980;27;20046;-70
2023/03/16 05:09:53;;;;;;;9.68;5.03;;;;;;;;;;5117622;27;20043;-70
2023/03/16 05:12:19;;;;;;;7.05;4.93;;;;;;;;;;5136153;27;20063;-70
2023/03/16 05:14:45;;;;;;;7.35;5.20;;;;;;;;;;5117833;27;20122;-70
2023/03/16 05:17:13;;;;;;;6.80;4.45;;;;;;;;;;5117801;27;20084;-70
2023/03/16 05:19:41;;;;;;;8.88;5.20;;;;;;;;;;5100603;27;20034;-70
2023/03/16 05:22:07;;;;;;;8.55;5.45;;;;;;;;;;5117072;27;21291;-70
2023/03/16 05:24:33;;;;;;;8.77;4.97;;;;;;;;;;5117451;27;20133;-70
2023/03/16 05:27:02;;;;;;;7.32;5.28;;;;;;;;;;5117523;27;20126;-70
2023/03/16 05:29:30;;;;;;;8.38;5.22;;;;;;;;;;5123044;27;20390;-70
2023/03/16 05:31:56;;;;;;;7.22;5.55;;;;;;;;;;5106326;27;20123;-70
2023/03/16 05:34:22;;;;;;;9.18;5.07;;;;;;;;;;5117180;27;20035;-70
2023/03/16 05:36:48;;;;;;;8.23;5.40;;;;;;;;;;5100320;27;20027;-70
2023/03/16 05:39:14;;;;;;;8.68;5.35;;;;;;;;;;5116744;27;20126;-70
2023/03/16 05:41:40;;;;;;;8.20;4.68;;;;;;;;;;5116584;27;20031;-69
2023/03/16 05:44:07;;;;;;;7.38;5.18;;;;;;;;;;5116947;27;20081;-69
2023/03/16 05:46:33;;;;;;;7.53;5.20;;;;;;;;;;5116763;27;20081;-69
2023/03/16 05:48:59;;;;;;;8.07;5.32;;;;;;;;;;5117360;27;20043;-71
2023/03/16 05:51:25;;;;;;;7.95;5.28;;;;;;;;;;5100038;27;20492;-70
2023/03/16 05:53:55;;;;;;;8.75;5.45;;;;;;;;;;5117046;27;20050;-70
2023/03/16 05:56:23;;;;;;;7.97;5.70;;;;;;;;;;5116656;27;20091;-70
2023/03/16 05:58:49;;;;;;;6.88;5.15;;;;;;;;;;5117264;27;20036;-70
2023/03/16 06:01:15;;;;;;;6.18;4.88;;;;;;;;;;5116310;27;20031;-70
2023/03/16 06:03:42;;;;;;;8.57;5.70;;;;;;;;;;5099462;27;20525;-74
2023/03/16 06:06:08;;;;;;;8.23;5.30;;;;;;;;;;5116607;27;20039;-75
2023/03/16 06:08:34;;;;;;;10.60;5.75;;;;;;;;;;5116421;27;20100;-75
2023/03/16 06:11:00;;;;;;;8.23;5.22;;;;;;;;;;5116953;27;20157;-74
2023/03/16 06:13:26;;;;;;;8.65;5.70;;;;;;;;;;5116411;27;20046;-75
2023/03/16 06:15:52;;;;;;;9.00;5.50;;;;;;;;;;5139386;27;20043;-75
2023/03/16 06:18:18;;;;;;;7.85;6.05;;;;;;;;;;5132628;27;20042;-70
2023/03/16 06:20:46;;;;;;;7.75;5.38;;;;;;;;;;5099424;27;20027;-70
2023/03/16 06:23:12;;;;;;;8.35;5.60;;;;;;;;;;5116315;27;20039;-70
2023/03/16 06:25:39;;;;;;;8.98;6.20;;;;;;;;;;5116589;27;20043;-70
2023/03/16 06:28:05;;;;;;;9.82;6.00;;;;;;;;;;5116221;27;20038;-70
2023/03/16 06:30:31;;;;;;;7.88;5.72;;;;;;;;;;5116163;27;20489;-70
2023/03/16 06:32:58;;;;;;;9.35;6.25;;;;;;;;;;5115956;27;20095;-70
2023/03/16 06:35:25;;;;;;;10.25;5.70;;;;;;;;;;5099136;27;20423;-70
2023/03/16 06:37:51;;;;;;;10.40;5.70;;;;;;;;;;5099013;27;20035;-70
2023/03/16 06:40:17;;;;;;;10.20;6.15;;;;;;;;;;5115120;28;20099;-70
2023/03/16 06:42:43;;;;;;;11.30;5.88;;;;;;;;;;5115940;27;20027;-70
2023/03/16 06:45:10;;;;;;;9.15;5.70;;;;;;;;;;5115755;27;20039;-70
2023/03/16 06:47:36;;;;;;;8.73;5.88;;;;;;;;;;5098959;27;20083;-70
2023/03/16 06:50:03;;;;;;;9.00;5.97;;;;;;;;;;5115996;27;20066;-70
2023/03/16 06:52:30;;;;;;;9.60;6.00;;;;;;;;;;5115608;27;20487;-70
2023/03/16 06:54:57;;;;;;;11.20;6.05;;;;;;;;;;5115331;27;20047;-70
2023/03/16 06:57:23;;;;;;;13.88;8.07;;;;;;;;;;5114900;27;20160;-70
2023/03/16 06:59:50;;;;;;;8.32;5.70;;;;;;;;;;5079504;27;20028;-70
2023/03/16 07:02:16;;;;;;;12.25;6.15;;;;;;;;;;5115513;27;20106;-70
2023/03/16 07:04:43;;;;;;;10.80;5.80;;;;;;;;;;5114606;27;20061;-70
2023/03/16 07:07:10;;;;;;;11.95;6.32;;;;;;;;;;5115313;27;20047;-70
2023/03/16 07:09:36;;;;;;;9.27;5.65;;;;;;;;;;5114022;27;20379;-70
2023/03/16 07:12:03;;;;;;;12.32;6.05;;;;;;;;;;5115270;27;20042;-70
2023/03/16 07:14:30;;;;;;;8.95;5.90;;;;;;;;;;5114758;27;20126;-70
2023/03/16 07:16:56;;;;;;;9.15;6.03;;;;;;;;;;5115190;27;20092;-70
2023/03/16 07:19:22;;;;;;;14.13;6.22;;;;;;;;;;5114826;27;20141;-70
2023/03/16 07:21:48;;;;;;;9.63;5.90;;;;;;;;;;5114982;27;20066;-70
2023/03/16 07:24:14;;;;;;;8.82;6.05;;;;;;;;;;5115098;27;20411;-70
2023/03/16 07:26:41;;;;;;;9.80;6.25;;;;;;;;;;5114900;27;20076;-70
2023/03/16 07:29:08;;;;;;;11.43;6.07;;;;;;;;;;5112341;27;20122;-70
2023/03/16 07:31:34;;;;;;;10.60;6.28;;;;;;;;;;5131360;27;20039;-70
2023/03/16 07:34:01;;;;;;;10.93;5.47;;;;;;;;;;5114761;28;20166;-70
2023/03/16 07:36:27;;;;;;;10.40;6.25;;;;;;;;;;5115244;27;20360;-75
2023/03/16 07:38:54;;;;;;;10.10;5.90;;;;;;;;;;5114830;27;20038;-75
2023/03/16 07:41:20;;;;;;;9.85;6.18;;;;;;;;;;5098139;27;20039;-76
2023/03/16 07:43:46;;;;;;;13.25;5.53;;;;;;;;;;5115219;27;20042;-74
2023/03/16 07:46:13;;;;;;;11.40;6.43;;;;;;;;;;5114787;27;20070;-73
2023/03/16 07:48:43;;;;;;;11.18;6.07;;;;;;;;;;5097806;28;20164;-75
2023/03/16 07:51:10;;;;;;;10.27;5.70;;;;;;;;;;5114622;27;20031;-74
2023/03/16 07:53:36;;;;;;;9.32;5.68;;;;;;;;;;5114303;28;20459;-74
2023/03/16 07:56:03;;;;;;;14.88;5.80;;;;;;;;;;5115774;27;20403;-74
2023/03/16 07:58:29;;;;;;;10.05;5.38;;;;;;;;;;5113631;28;20035;-75
2023/03/16 08:00:57;;;;;;;10.18;5.15;;;;;;;;;;5115921;28;20035;-75
2023/03/16 08:03:23;;;;;;;8.77;5.15;;;;;;;;;;5117865;28;20035;-75
2023/03/16 08:05:50;;;;;;;8.90;5.72;;;;;;;;;;5099790;28;20043;-74
2023/03/16 08:08:16;;;;;;;12.18;5.97;;;;;;;;;;5135192;27;20044;-72
2023/03/16 08:10:42;;;;;;;10.05;6.05;;;;;;;;;;5102232;28;20039;-78
2023/03/16 08:13:08;;;;;;;12.23;5.88;;;;;;;;;;5130871;28;20050;-74
2023/03/16 08:15:34;;;;;;;12.25;6.05;;;;;;;;;;5115836;28;20043;-74
2023/03/16 08:18:05;;;;;;;9.65;5.28;;;;;;;;;;5115744;28;20038;-74
2023/03/16 08:20:32;;;;;;;11.15;5.32;;;;;;;;;;5098366;28;20036;-75
2023/03/16 08:22:59;;;;;;;7.80;5.25;;;;;;;;;;5115790;28;20141;-74
2023/03/16 08:25:25;;;;;;;8.68;5.55;;;;;;;;;;5115250;28;20478;-75
2023/03/16 08:27:52;;;;;;;8.65;5.25;;;;;;;;;;5115424;28;20471;-74
2023/03/16 08:30:18;;;;;;;11.80;5.63;;;;;;;;;;5114623;28;20422;-75
2023/03/16 08:32:44;;;;;;;14.27;6.15;;;;;;;;;;5115779;28;20139;-75
2023/03/16 08:35:12;;;;;;;7.72;5.40;;;;;;;;;;5115744;28;20089;-75
2023/03/16 08:37:39;;;;;;;8.30;5.47;;;;;;;;;;5115988;28;20398;-75
2023/03/16 08:40:09;;;;;;;12.25;6.35;;;;;;;;;;5098904;28;20043;-75
2023/03/16 08:42:35;;;;;;;10.93;5.72;;;;;;;;;;5115191;28;20046;-74
2023/03/16 08:45:08;;;;;;;9.45;5.88;;;;;;;;;;5115142;27;20050;-75
2023/03/16 08:47:34;;;;;;;10.85;5.43;;;;;;;;;;5141370;27;20371;-75
2023/03/16 08:50:01;;;;;;;7.45;5.03;;;;;;;;;;5115467;28;20035;-74
2023/03/16 08:52:27;;;;;;;12.98;6.00;;;;;;;;;;5142457;27;20131;-75
2023/03/16 08:54:54;;;;;;;9.85;5.45;;;;;;;;;;5137174;27;20046;-74
2023/03/16 08:57:21;;;;;;;11.60;5.72;;;;;;;;;;5115168;28;20147;-74
2023/03/16 08:59:47;;;;;;;12.70;6.18;;;;;;;;;;5115052;28;20039;-74
2023/03/16 09:02:13;;;;;;;15.27;6.60;;;;;;;;;;5114802;28;20028;-75
2023/03/16 09:04:39;;;;;;;11.10;6.10;;;;;;;;;;5117161;27;20070;-74
2023/03/16 09:07:06;;;;;;;13.57;7.28;;;;;;;;;;5137532;27;20040;-73
2023/03/16 09:09:33;;;;;;;13.85;6.25;;;;;;;;;;5117717;27;20768;-74
2023/03/16 09:11:59;;;;;;;10.05;6.88;;;;;;;;;;5112320;27;20124;-69
2023/03/16 09:14:25;;;;;;;13.85;6.47;;;;;;;;;;5093422;27;20040;-69
2023/03/16 09:16:51;;;;;;;15.50;6.68;;;;;;;;;;5118762;27;20058;-69
2023/03/16 09:19:18;;;;;;;12.50;6.93;;;;;;;;;;5118531;27;20031;-69
2023/03/16 09:21:44;;;;;;;9.75;6.00;;;;;;;;;;5118626;27;20134;-69
2023/03/16 09:24:10;;;;;;;14.35;7.03;;;;;;;;;;5135311;27;20053;-69
2023/03/16 09:26:38;;;;;;;11.02;5.95;;;;;;;;;;5118172;27;20061;-68
2023/03/16 09:29:05;;;;;;;11.77;5.93;;;;;;;;;;5126723;27;20038;-69
2023/03/16 09:31:32;;;;;;;11.93;6.22;;;;;;;;;;5102234;27;20042;-68
2023/03/16 09:33:58;;;;;;;10.18;5.75;;;;;;;;;;5135454;27;20062;-68
2023/03/16 09:36:26;;;;;;;7.85;5.35;;;;;;;;;;5118178;27;20479;-69
2023/03/16 09:38:52;;;;;;;8.98;5.25;;;;;;;;;;5124383;27;20489;-68
2023/03/16 09:41:41;;;;;;;8.80;5.40;;;;;;;;;;5118961;27;20471;-68
2023/03/16 09:44:08;;;;;;;12.07;5.72;;;;;;;;;;5118109;27;20035;-68
2023/03/16 09:46:41;;;;;;;11.30;5.57;;;;;;;;;;5135210;27;20039;-68
2023/03/16 09:49:09;;;;;;;14.85;5.93;;;;;;;;;;5117713;27;20038;-69
2023/03/16 09:51:35;;;;;;;13.13;6.07;;;;;;;;;;5136228;27;20035;-69
2023/03/16 09:54:03;;;;;;;9.82;5.40;;;;;;;;;;5117888;27;20031;-69
2023/03/16 09:56:37;;;;;;;11.88;5.50;;;;;;;;;;5117659;27;20499;-69
2023/03/16 09:59:09;;;;;;;9.10;6.25;;;;;;;;;;5117917;27;20043;-69
2023/03/16 10:01:47;;;;;;;10.05;5.63;;;;;;;;;;5100924;27;20050;-69
2023/03/16 10:04:28;;;;;;;13.02;6.15;;;;;;;;;;5151955;27;20054;-69
2023/03/16 10:07:11;;;;;;;9.57;5.30;;;;;;;;;;5102722;27;20126;-69
2023/03/16 10:09:48;;;;;;;11.35;5.13;;;;;;;;;;5134351;27;20057;-69
2023/03/16 10:12:14;;;;;;;10.63;5.63;;;;;;;;;;5117817;27;20106;-69
2023/03/16 10:14:41;;;;;;;11.40;5.18;;;;;;;;;;5116714;27;20043;-69
2023/03/16 10:17:08;;;;;;;10.00;5.15;;;;;;;;;;5106034;27;20047;-70
2023/03/16 10:19:47;;;;;;;11.52;6.00;;;;;;;;;;5144106;27;20035;-69
2023/03/16 10:22:22;;;;;;;14.32;6.40;;;;;;;;;;5113860;27;20035;-69
2023/03/16 10:25:04;;;;;;;10.40;5.80;;;;;;;;;;5137498;27;20047;-69
2023/03/16 10:27:35;;;;;;;13.87;6.03;;;;;;;;;;5105105;27;20051;-69
2023/03/16 10:30:02;;;;;;;11.88;6.15;;;;;;;;;;5116261;27;20043;-69
2023/03/16 10:32:34;;;;;;;15.30;6.38;;;;;;;;;;5115887;27;20035;-69
2023/03/16 10:35:07;;;;;;;10.52;6.65;;;;;;;;;;5137323;27;20050;-69
2023/03/16 10:37:33;;;;;;;11.52;5.45;;;;;;;;;;5115772;27;20124;-69
2023/03/16 10:39:59;;;;;;;11.38;5.53;;;;;;;;;;5115820;27;20484;-69
2023/03/16 10:42:26;;;;;;;13.18;5.40;;;;;;;;;;5115331;27;20083;-69
2023/03/16 10:44:59;;;;;;;11.13;6.43;;;;;;;;;;5115511;27;20047;-69
2023/03/16 10:47:29;;;;;;;11.45;5.60;;;;;;;;;;5112858;27;20047;-69
2023/03/16 10:49:55;;;;;;;10.93;6.20;;;;;;;;;;5115080;27;20055;-68
2023/03/16 10:52:35;;;;;;;12.57;6.30;;;;;;;;;;5113891;27;20114;-69
2023/03/16 10:55:10;;;;;;;12.45;5.78;;;;;;;;;;5130488;27;20164;-70
2023/03/16 10:57:37;;;;;;;10.13;6.00;;;;;;;;;;5115009;27;20043;-69
2023/03/16 11:00:12;;;;;;;21.13;6.00;;;;;;;;;;5099068;27;20039;-69
2023/03/16 11:02:39;;;;;;;10.68;5.50;;;;;;;;;;5115459;27;20083;-69
2023/03/16 11:05:17;;;;;;;10.82;5.60;;;;;;;;;;5098471;27;20042;-69
2023/03/16 11:07:48;;;;;;;12.88;5.95;;;;;;;;;;5115318;27;20073;-68
2023/03/16 11:10:34;;;;;;;11.63;5.72;;;;;;;;;;5098660;27;20055;-69
2023/03/16 11:13:11;;;;;;;12.82;5.90;;;;;;;;;;5098057;27;20490;-69
2023/03/16 11:15:50;;;;;;;10.27;5.50;;;;;;;;;;5115080;27;20123;-69
2023/03/16 11:18:23;;;;;;;11.65;5.55;;;;;;;;;;5115216;27;20039;-68
2023/03/16 11:20:51;;;;;;;9.43;5.40;;;;;;;;;;5114907;27;20057;-69
2023/03/16 11:23:18;;;;;;;10.38;5.65;;;;;;;;;;5098012;27;20114;-68
2023/03/16 11:25:46;;;;;;;10.15;5.43;;;;;;;;;;5115005;27;20043;-69
2023/03/16 11:28:15;;;;;;;11.02;5.18;;;;;;;;;;5128915;27;20035;-69
2023/03/16 11:30:55;;;;;;;11.02;5.80;;;;;;;;;;5115083;27;20088;-69
2023/03/16 11:33:21;;;;;;;9.27;5.07;;;;;;;;;;5114969;27;20059;-69
2023/03/16 11:35:53;;;;;;;10.25;5.72;;;;;;;;;;5114513;27;20104;-69
2023/03/16 11:38:21;;;;;;;11.90;6.05;;;;;;;;;;5115251;27;20412;-69
2023/03/16 11:40:58;;;;;;;9.77;5.50;;;;;;;;;;5114847;27;20491;-69
2023/03/16 11:43:42;;;;;;;11.45;6.03;;;;;;;;;;5113081;27;20039;-69
2023/03/16 11:46:19;;;;;;;14.13;5.32;;;;;;;;;;5115145;27;20035;-69
2023/03/16 11:48:48;;;;;;;9.45;5.85;;;;;;;;;;5098020;27;20059;-70
2023/03/16 11:51:18;;;;;;;9.23;5.72;;;;;;;;;;5114829;27;20492;-69
2023/03/16 11:54:05;;;;;;;10.20;6.25;;;;;;;;;;5131130;27;20091;-69
2023/03/16 11:56:33;;;;;;;9.30;5.85;;;;;;;;;;5070099;28;20074;-69
2023/03/16 11:59:20;;;;;;;12.43;5.88;;;;;;;;;;5130924;27;20051;-69
2023/03/16 12:02:12;;;;;;;13.48;5.93;;;;;;;;;;5059054;28;20070;-69
2023/03/16 12:04:51;;;;;;;9.43;5.72;;;;;;;;;;5115602;28;20035;-69
2023/03/16 12:07:20;;;;;;;13.13;5.30;;;;;;;;;;5114472;28;20046;-70
2023/03/16 12:10:02;;;;;;;10.23;5.53;;;;;;;;;;5114669;28;20378;-69
2023/03/16 12:12:31;;;;;;;10.48;5.32;;;;;;;;;;5114915;28;20031;-74
2023/03/16 12:15:16;;;;;;;11.43;5.63;;;;;;;;;;5114574;28;20521;-74
2023/03/16 12:17:43;;;;;;;8.60;4.93;;;;;;;;;;5114856;28;20094;-75
2023/03/16 12:20:17;;;;;;;11.82;5.88;;;;;;;;;;5114096;28;20043;-72
2023/03/16 12:22:53;;;;;;;13.23;5.93;;;;;;;;;;5114258;28;20406;-75
2023/03/16 12:25:22;;;;;;;11.88;5.65;;;;;;;;;;5114670;28;20043;-72
2023/03/16 12:27:52;;;;;;;9.30;5.25;;;;;;;;;;5114282;28;20051;-73
2023/03/16 12:30:29;;;;;;;10.20;5.55;;;;;;;;;;5114726;28;20031;-73
2023/03/16 12:33:00;;;;;;;14.23;6.30;;;;;;;;;;5114493;28;20164;-73
2023/03/16 12:35:36;;;;;;;10.77;5.20;;;;;;;;;;5114569;28;20050;-74
2023/03/16 12:38:14;;;;;;;13.60;5.93;;;;;;;;;;5114172;28;20127;-73
2023/03/16 12:41:07;;;;;;;9.00;5.43;;;;;;;;;;5118139;27;20033;-73
2023/03/16 12:43:39;;;;;;;10.13;5.65;;;;;;;;;;5080739;27;20039;-73
2023/03/16 12:46:08;;;;;;;10.23;5.28;;;;;;;;;;5118646;27;20402;-74
2023/03/16 12:48:44;;;;;;;15.30;6.10;;;;;;;;;;5118664;27;20047;-73
2023/03/16 12:51:10;;;;;;;13.05;5.93;;;;;;;;;;5118224;27;20039;-73
2023/03/16 12:53:56;;;;;;;8.80;5.45;;;;;;;;;;5118218;27;20432;-73
2023/03/16 12:56:30;;;;;;;11.48;5.40;;;;;;;;;;5118190;27;20039;-73
2023/03/16 12:58:57;;;;;;;13.65;6.05;;;;;;;;;;5117966;27;20055;-73
2023/03/16 13:01:28;;;;;;;11.20;5.20;;;;;;;;;;5117774;27;20039;-73
2023/03/16 13:03:59;;;;;;;10.20;5.57;;;;;;;;;;5118091;27;20039;-73
2023/03/16 13:06:30;;;;;;;11.93;5.35;;;;;;;;;;5136070;27;20053;-73
2023/03/16 13:08:58;;;;;;;9.38;6.07;;;;;;;;;;5117855;27;20122;-73
2023/03/16 13:11:25;;;;;;;9.43;5.38;;;;;;;;;;5117499;27;20031;-73
2023/03/16 13:14:11;;;;;;;12.25;5.78;;;;;;;;;;5118057;27;20134;-73
2023/03/16 13:16:38;;;;;;;11.05;5.80;;;;;;;;;;5117368;27;20046;-73
2023/03/16 13:19:20;;;;;;;9.32;5.82;;;;;;;;;;5117682;27;20491;-73
2023/03/16 13:21:46;;;;;;;10.15;5.90;;;;;;;;;;5115138;27;20050;-73
2023/03/16 13:24:14;;;;;;;9.35;5.50;;;;;;;;;;5117665;27;20076;-74
2023/03/16 13:26:42;;;;;;;12.88;6.13;;;;;;;;;;5117335;27;20066;-73
2023/03/16 13:29:28;;;;;;;10.77;6.05;;;;;;;;;;5100341;27;20115;-74
2023/03/16 13:31:55;;;;;;;12.60;5.90;;;;;;;;;;5115215;27;20033;-73
2023/03/16 13:34:55;;;;;;;10.02;5.82;;;9.20;99.90;;;;;;5116999;27;20031;-73
2023/03/16 13:37:22;;;;;;;12.07;5.78;;;;;;;;;;5100737;27;20035;-73
2023/03/16 13:39:53;;;;;;;12.18;5.93;;;;;;;;;;5117725;27;20047;-73
2023/03/16 13:42:21;;;;;;;11.25;5.85;;;;;;;;;;5115858;27;20046;-73
2023/03/16 13:44:47;;;;;;;10.18;5.82;;;;;;;;;;5117191;27;20046;-73
2023/03/16 13:47:14;;;;;;;11.00;6.25;;;;;;;;;;5100125;27;20363;-73
2023/03/16 13:49:49;;;;;;;9.73;6.38;;;;;;;;;;5116203;27;20058;-73
2023/03/16 13:52:21;;;;;;;10.73;6.40;;;;;;;;;;5117199;27;20042;-73
2023/03/16 13:54:50;;;;;;;11.10;6.18;;;;;;;;;;5114927;27;20127;-73
2023/03/16 13:57:18;;;;;;;11.52;5.43;;;;;;;;;;5115854;27;20066;-73
2023/03/16 13:59:44;;;;;;;10.00;5.70;;;;;;;;;;5117266;27;20035;-74
2023/03/16 14:02:16;;;;;;;10.70;5.53;;;;;;;;;;5116756;27;20031;-74
2023/03/16 14:04:42;;;;;;;8.00;5.50;;;;;;;;;;5122679;27;20042;-73
2023/03/16 14:07:17;;;;;;;8.23;5.78;;;;;;;;;;5116710;27;20126;-72
2023/03/16 14:09:45;;;;;;;9.50;5.53;;;;;;;;;;5116601;27;20410;-73
2023/03/16 14:12:15;;;;;;;18.23;6.22;;;;;;;;;;5116745;27;20071;-74
2023/03/16 14:14:41;;;;;;;14.60;6.47;;;;;;;;;;5116229;27;20091;-73
2023/03/16 14:17:12;;;;;;;15.57;5.53;;;;;;;;;;5116647;27;20042;-74
2023/03/16 14:19:43;;;;;;;13.70;6.20;;;;;;;;;;5116279;27;20130;-73
2023/03/16 14:22:36;;;;;;;12.90;5.78;;;;;;;;;;5125259;27;20471;-73
2023/03/16 14:25:04;;;;;;;11.50;6.75;;;;;;;;;;5090622;27;20091;-73
2023/03/16 14:27:39;;;;;;;11.57;6.32;;;;;;;;;;5132976;27;20056;-74
2023/03/16 14:30:26;;;;;;;13.23;6.03;;;;;;;;;;5116318;27;20066;-73
2023/03/16 14:32:55;;;;;;;14.45;6.25;;;;;;;;;;5116208;27;20078;-73
2023/03/16 14:35:22;;;;;;;14.85;6.28;;;;;;;;;;5114504;27;20078;-73
2023/03/16 14:37:50;;;;;;;11.65;5.95;;;;;;;;;;5116131;27;20516;-73
2023/03/16 14:40:29;;;;;;;13.20;6.38;;;;;;;;;;5115612;27;20074;-73
2023/03/16 14:43:01;;;;;;;12.13;6.25;;;;;;;;;;5113528;27;20039;-74
2023/03/16 14:45:32;;;;;;;10.27;5.80;;;;;;;;;;5116335;27;20035;-73
2023/03/16 14:48:06;;;;;;;19.27;7.97;;;;;;;;;;5116080;27;20043;-73